createdAt,value
2022-08-19T00:02:01.147Z,18.85
2022-08-19T00:04:31.900Z,20.02
2022-08-19T00:07:01.875Z,15.98
2022-08-19T00:09:30.935Z,15.25
2022-08-19T00:12:00.044Z,16.98
2022-08-19T00:14:31.259Z,14.35
2022-08-19T00:17:01.568Z,15.57
2022-08-19T00:19:30.376Z,21.05
2022-08-19T00:21:58.906Z,24.00
2022-08-19T00:24:29.746Z,17.27
2022-08-19T00:27:24.840Z,22.27
2022-08-19T00:29:47.044Z,18.08
2022-08-19T00:32:23.099Z,15.52
2022-08-19T00:34:53.814Z,19.50
2022-08-19T00:37:23.712Z,13.07
2022-08-19T00:39:53.195Z,24.40
2022-08-19T00:42:23.070Z,12.00
2022-08-19T00:44:52.397Z,27.70
2022-08-19T00:47:20.902Z,18.27
2022-08-19T00:49:54.210Z,18.00
2022-08-19T00:52:29.928Z,14.05
2022-08-19T00:54:59.671Z,15.40
2022-08-19T00:57:32.909Z,11.45
2022-08-19T01:00:03.967Z,15.73
2022-08-19T01:02:34.431Z,19.65
2022-08-19T01:05:07.685Z,14.48
2022-08-19T01:07:38.263Z,21.42
2022-08-19T01:10:09.666Z,15.13
2022-08-19T01:12:38.769Z,16.48
2022-08-19T01:15:09.435Z,17.58
2022-08-19T01:17:40.797Z,17.02
2022-08-19T01:20:13.414Z,18.00
2022-08-19T01:22:47.433Z,12.40
2022-08-19T01:25:17.042Z,15.52
2022-08-19T01:27:50.051Z,28.30
2022-08-19T01:30:25.425Z,19.38
2022-08-19T01:32:54.798Z,14.48
2022-08-19T01:35:25.368Z,15.10
2022-08-19T01:37:57.103Z,17.10
2022-08-19T01:40:28.597Z,9.57
2022-08-19T01:42:57.472Z,15.35
2022-08-19T01:45:28.630Z,17.17
2022-08-19T01:48:01.619Z,17.20
2022-08-19T01:50:31.815Z,18.95
2022-08-19T01:53:07.858Z,13.93
2022-08-19T01:55:41.030Z,16.40
2022-08-19T01:58:14.641Z,17.80
2022-08-19T02:00:44.113Z,13.77
2022-08-19T02:03:12.576Z,16.42
2022-08-19T02:05:41.242Z,16.55
2022-08-19T02:08:11.282Z,16.05
2022-08-19T02:10:42.697Z,22.23
2022-08-19T02:13:11.128Z,19.80
2022-08-19T02:15:39.978Z,10.50
2022-08-19T02:18:09.427Z,13.52
2022-08-19T02:20:38.791Z,14.13
2022-08-19T02:23:13.947Z,17.52
2022-08-19T02:25:49.023Z,20.67
2022-08-19T02:28:18.948Z,12.85
2022-08-19T02:30:48.725Z,19.00
2022-08-19T02:33:17.406Z,11.40
2022-08-19T02:35:46.630Z,20.10
2022-08-19T02:38:26.658Z,13.75
2022-08-19T02:40:58.463Z,12.80
2022-08-19T02:43:28.535Z,14.23
2022-08-19T02:45:58.080Z,16.08
2022-08-19T02:48:27.769Z,8.30
2022-08-19T02:50:57.008Z,13.82
2022-08-19T02:53:28.236Z,10.10
2022-08-19T02:55:58.131Z,10.93
2022-08-19T02:58:27.669Z,18.50
2022-08-19T03:00:58.261Z,14.88
2022-08-19T03:03:27.092Z,12.48
2022-08-19T03:06:05.914Z,13.48
2022-08-19T03:08:34.162Z,16.45
2022-08-19T03:11:03.950Z,13.77
2022-08-19T03:13:32.299Z,16.33
2022-08-19T03:16:00.738Z,14.10
2022-08-19T03:18:29.180Z,15.52
2022-08-19T03:20:58.257Z,21.40
2022-08-19T03:23:26.563Z,18.42
2022-08-19T03:25:58.334Z,10.95
2022-08-19T03:28:51.530Z,16.48
2022-08-19T03:31:43.351Z,15.25
2022-08-19T03:34:18.325Z,12.88
2022-08-19T03:36:47.099Z,18.10
2022-08-19T03:39:16.097Z,23.63
2022-08-19T03:41:48.443Z,12.63
2022-08-19T03:44:21.839Z,10.43
2022-08-19T03:46:51.937Z,23.10
2022-08-19T03:49:21.489Z,5.85
2022-08-19T03:51:56.783Z,17.38
2022-08-19T03:54:27.591Z,13.75
2022-08-19T03:56:57.792Z,19.65
2022-08-19T03:59:30.860Z,12.25
2022-08-19T04:02:02.270Z,10.75
2022-08-19T04:04:32.018Z,14.97
2022-08-19T04:07:00.856Z,10.50
2022-08-19T04:09:29.209Z,13.35
2022-08-19T04:11:59.986Z,13.13
2022-08-19T04:14:32.155Z,9.88
2022-08-19T04:17:02.279Z,11.32
2022-08-19T04:19:31.882Z,12.88
2022-08-19T04:22:00.762Z,10.63
2022-08-19T04:24:29.284Z,11.85
2022-08-19T04:26:57.547Z,10.30
2022-08-19T04:29:28.053Z,17.63
2022-08-19T04:31:59.616Z,14.63
2022-08-19T04:34:30.658Z,15.63
2022-08-19T04:37:00.274Z,18.52
2022-08-19T04:39:44.848Z,15.18
2022-08-19T04:42:31.133Z,23.92
2022-08-19T04:45:00.675Z,13.82
2022-08-19T04:47:49.435Z,10.90
2022-08-19T04:50:23.617Z,13.30
2022-08-19T04:52:54.438Z,12.05
2022-08-19T04:55:22.944Z,14.18
2022-08-19T04:57:51.763Z,16.40
2022-08-19T05:00:20.087Z,12.00
2022-08-19T05:02:50.384Z,14.00
2022-08-19T05:05:19.006Z,16.35
2022-08-19T05:07:47.237Z,15.50
2022-08-19T05:10:15.518Z,17.00
2022-08-19T05:12:43.776Z,15.23
2022-08-19T05:15:12.714Z,12.63
2022-08-19T05:18:01.344Z,12.85
2022-08-19T05:20:48.592Z,17.10
2022-08-19T05:23:21.851Z,10.45
2022-08-19T05:25:51.403Z,22.63
2022-08-19T05:28:20.573Z,10.98
2022-08-19T05:30:49.176Z,18.88
2022-08-19T05:33:17.384Z,10.82
2022-08-19T05:35:47.378Z,18.38
2022-08-19T05:38:15.819Z,8.63
2022-08-19T05:40:47.047Z,14.43
2022-08-19T05:43:17.614Z,9.25
2022-08-19T05:45:46.307Z,8.75
2022-08-19T05:48:21.510Z,9.57
2022-08-19T05:50:51.959Z,11.98
2022-08-19T05:53:20.759Z,10.00
2022-08-19T05:55:48.989Z,6.45
2022-08-19T05:58:18.333Z,6.20
2022-08-19T06:00:53.673Z,9.02
2022-08-19T06:03:22.251Z,8.77
2022-08-19T06:05:52.333Z,4.80
2022-08-19T06:08:34.448Z,4.22
2022-08-19T06:13:48.242Z,2.28
2022-08-19T06:16:20.667Z,1.98
2022-08-19T06:18:49.461Z,3.25
2022-08-19T06:21:19.837Z,3.53
2022-08-19T06:23:48.404Z,3.28
2022-08-19T06:26:18.364Z,2.22
2022-08-19T06:28:47.616Z,3.85
2022-08-19T06:31:17.239Z,1.77
2022-08-19T06:33:47.110Z,3.60
2022-08-19T06:36:21.617Z,4.43
2022-08-19T06:38:53.478Z,3.85
2022-08-19T06:41:22.158Z,6.07
2022-08-19T06:43:54.065Z,11.35
2022-08-19T06:46:24.848Z,4.68
2022-08-19T06:48:54.451Z,0.93
2022-08-19T06:51:25.335Z,0.95
2022-08-19T06:53:57.888Z,2.45
2022-08-19T06:56:34.768Z,2.70
2022-08-19T06:59:04.715Z,3.42
2022-08-19T07:01:36.487Z,2.38
2022-08-19T07:04:05.442Z,2.92
2022-08-19T07:06:44.189Z,5.35
2022-08-19T07:09:18.396Z,6.70
2022-08-19T07:11:50.293Z,5.55
2022-08-19T07:14:21.239Z,12.13
2022-08-19T07:16:51.536Z,2.63
2022-08-19T07:19:20.945Z,11.30
2022-08-19T07:21:53.835Z,18.83
2022-08-19T07:24:25.601Z,5.82
2022-08-19T07:26:55.765Z,1.60
2022-08-19T07:29:28.388Z,2.65
2022-08-19T07:32:00.090Z,1.23
2022-08-19T07:37:01.139Z,1.42
2022-08-19T07:39:31.279Z,0.55
2022-08-19T07:42:01.717Z,0.20
2022-08-19T07:44:30.501Z,1.25
2022-08-19T07:47:01.243Z,1.63
2022-08-19T07:49:29.759Z,1.52
2022-08-19T07:52:03.269Z,0.50
2022-08-19T07:54:35.518Z,1.77
2022-08-19T07:59:33.035Z,2.22
2022-08-19T08:02:02.104Z,3.78
2022-08-19T08:04:49.915Z,3.78
2022-08-19T08:07:36.901Z,1.02
2022-08-19T08:10:20.709Z,1.80
2022-08-19T08:13:08.757Z,2.88
2022-08-19T08:15:43.045Z,1.73
2022-08-19T08:18:13.085Z,2.08
2022-08-19T08:20:43.990Z,1.95
2022-08-19T08:23:27.418Z,4.75
2022-08-19T08:25:58.087Z,1.85
2022-08-19T08:28:30.754Z,1.55
2022-08-19T08:31:00.178Z,1.67
2022-08-19T08:33:33.711Z,1.65
2022-08-19T08:36:03.942Z,2.13
2022-08-19T08:38:39.732Z,1.55
2022-08-19T08:41:20.549Z,1.52
2022-08-19T08:43:53.190Z,1.60
2022-08-19T08:46:30.380Z,1.35
2022-08-19T08:49:08.451Z,4.70
2022-08-19T08:54:22.618Z,1.42
2022-08-19T08:56:53.740Z,2.40
2022-08-19T08:59:28.651Z,3.58
2022-08-19T09:01:57.903Z,1.65
2022-08-19T09:04:26.363Z,4.43
2022-08-19T09:07:18.703Z,4.35
2022-08-19T09:10:04.484Z,1.67
2022-08-19T09:12:44.398Z,2.47
2022-08-19T09:15:17.266Z,1.45
2022-08-19T09:17:45.872Z,2.45
2022-08-19T09:20:22.565Z,0.90
2022-08-19T09:25:27.175Z,2.63
2022-08-19T09:28:02.399Z,1.75
2022-08-19T09:30:35.068Z,1.67
2022-08-19T09:33:03.521Z,1.67
2022-08-19T09:35:32.642Z,2.42
2022-08-19T09:38:19.345Z,3.25
2022-08-19T09:40:50.137Z,2.85
2022-08-19T09:43:33.096Z,2.10
2022-08-19T09:46:02.797Z,1.90
2022-08-19T09:48:31.151Z,2.53
2022-08-19T09:51:05.756Z,4.85
2022-08-19T09:53:34.161Z,4.57
2022-08-19T09:56:04.315Z,2.42
2022-08-19T09:58:33.974Z,4.20
2022-08-19T10:01:04.137Z,4.03
2022-08-19T10:03:34.723Z,3.40
2022-08-19T10:06:05.977Z,4.28
2022-08-19T10:08:49.973Z,6.22
2022-08-19T10:11:27.859Z,4.50
2022-08-19T10:14:06.872Z,2.17
2022-08-19T10:16:39.549Z,7.47
2022-08-19T10:19:08.362Z,6.43
2022-08-19T10:21:36.959Z,6.75
2022-08-19T10:24:09.518Z,4.38
2022-08-19T10:26:43.050Z,5.30
2022-08-19T10:29:12.804Z,9.45
2022-08-19T10:31:58.795Z,4.80
2022-08-19T10:34:29.642Z,8.50
2022-08-19T10:37:01.258Z,9.70
2022-08-19T10:39:31.353Z,5.55
2022-08-19T10:42:02.286Z,2.97
2022-08-19T10:44:32.130Z,10.23
2022-08-19T10:47:01.348Z,8.27
2022-08-19T10:49:29.608Z,8.32
2022-08-19T10:52:18.765Z,6.20
2022-08-19T10:55:08.511Z,12.38
2022-08-19T10:58:01.361Z,5.10
2022-08-19T11:00:27.872Z,12.65
2022-08-19T11:02:56.902Z,11.48
2022-08-19T11:05:25.369Z,6.57
2022-08-19T11:07:53.795Z,19.58
2022-08-19T11:10:23.051Z,9.07
2022-08-19T11:12:58.733Z,14.82
2022-08-19T11:15:35.974Z,11.00
2022-08-19T11:18:27.152Z,7.82
2022-08-19T11:21:14.340Z,8.40
2022-08-19T11:23:49.020Z,8.10
2022-08-19T11:26:32.310Z,7.55
2022-08-19T11:29:10.837Z,6.50
2022-08-19T11:31:50.202Z,9.82
2022-08-19T11:34:39.266Z,8.15
2022-08-19T11:37:11.151Z,5.05
2022-08-19T11:39:53.213Z,9.98
2022-08-19T11:42:44.103Z,10.73
2022-08-19T11:45:19.611Z,4.50
2022-08-19T11:47:48.615Z,5.15
2022-08-19T11:50:17.313Z,13.27
2022-08-19T11:52:46.306Z,5.10
2022-08-19T11:55:15.678Z,6.63
2022-08-19T11:57:45.821Z,6.10
2022-08-19T12:00:16.667Z,6.25
2022-08-19T12:02:45.002Z,7.83
2022-08-19T12:05:13.389Z,6.10
2022-08-19T12:07:44.821Z,7.60
2022-08-19T12:10:13.250Z,9.65
2022-08-19T12:12:43.719Z,7.47
2022-08-19T12:15:13.210Z,10.00
2022-08-19T12:17:43.796Z,4.25
2022-08-19T12:20:14.329Z,6.07
2022-08-19T12:22:43.267Z,10.60
2022-08-19T12:25:13.284Z,5.53
2022-08-19T12:27:42.853Z,3.17
2022-08-19T12:30:15.984Z,7.30
2022-08-19T12:32:45.979Z,7.47
2022-08-19T12:35:14.348Z,7.70
2022-08-19T12:37:45.376Z,3.15
2022-08-19T12:40:26.186Z,7.80
2022-08-19T12:42:55.237Z,7.40
2022-08-19T12:45:23.798Z,5.13
2022-08-19T12:47:54.940Z,7.30
2022-08-19T12:50:23.979Z,6.32
2022-08-19T12:52:52.495Z,9.50
2022-08-19T12:55:21.040Z,6.57
2022-08-19T12:57:49.642Z,9.07
2022-08-19T13:00:21.844Z,7.93
2022-08-19T13:02:55.864Z,5.45
2022-08-19T13:05:28.155Z,7.82
2022-08-19T13:07:58.038Z,6.60
2022-08-19T13:10:29.308Z,6.15
2022-08-19T13:13:00.591Z,7.22
2022-08-19T13:15:29.598Z,9.90
2022-08-19T13:18:00.055Z,8.55
2022-08-19T13:20:28.506Z,7.07
2022-08-19T13:22:58.274Z,8.05
2022-08-19T13:25:27.693Z,3.78
2022-08-19T13:27:56.210Z,4.57
2022-08-19T13:30:42.770Z,8.48
2022-08-19T13:33:16.662Z,7.13
2022-08-19T13:35:49.611Z,4.28
2022-08-19T13:38:19.705Z,5.13
2022-08-19T13:40:48.518Z,4.93
2022-08-19T13:43:23.318Z,6.60
2022-08-19T13:45:54.912Z,4.32
2022-08-19T13:48:26.295Z,6.53
2022-08-19T13:50:55.280Z,8.35
2022-08-19T13:53:24.181Z,4.03
2022-08-19T13:55:54.691Z,8.13
2022-08-19T13:58:23.329Z,6.03
2022-08-19T14:00:51.586Z,6.10
2022-08-19T14:03:20.139Z,4.45
2022-08-19T14:05:49.851Z,5.55
2022-08-19T14:08:18.189Z,4.50
2022-08-19T14:10:46.590Z,5.53
2022-08-19T14:13:17.441Z,6.43
2022-08-19T14:15:46.271Z,4.10
2022-08-19T14:18:14.486Z,7.20
2022-08-19T14:20:43.800Z,6.25
2022-08-19T14:23:14.834Z,9.50
2022-08-19T14:25:43.550Z,8.32
2022-08-19T14:28:11.978Z,3.92
2022-08-19T14:30:40.569Z,5.38
2022-08-19T14:33:09.867Z,6.97
2022-08-19T14:35:38.920Z,6.20
2022-08-19T14:38:08.316Z,9.82
2022-08-19T14:40:38.020Z,7.35
2022-08-19T14:43:06.564Z,9.48
2022-08-19T14:45:37.448Z,7.60
2022-08-19T14:48:05.820Z,5.88
2022-08-19T14:50:35.022Z,8.55
2022-08-19T14:53:11.190Z,4.28
2022-08-19T14:55:45.601Z,10.10
2022-08-19T14:58:29.312Z,5.60
2022-08-19T15:01:00.997Z,8.38
2022-08-19T15:03:30.277Z,2.78
2022-08-19T15:05:59.043Z,5.45
2022-08-19T15:08:29.561Z,10.20
2022-08-19T15:11:00.326Z,5.53
2022-08-19T15:13:31.175Z,7.97
2022-08-19T15:15:59.636Z,9.50
2022-08-19T15:18:28.241Z,9.07
2022-08-19T15:20:57.875Z,4.90
2022-08-19T15:23:26.168Z,7.90
2022-08-19T15:25:56.529Z,8.80
2022-08-19T15:28:28.346Z,7.85
2022-08-19T15:30:56.570Z,10.75
2022-08-19T15:33:25.004Z,10.30
2022-08-19T15:35:54.479Z,10.48
2022-08-19T15:38:23.872Z,6.82
2022-08-19T15:40:52.650Z,9.70
2022-08-19T15:43:22.924Z,6.85
2022-08-19T15:45:52.927Z,11.05
2022-08-19T15:48:21.199Z,11.13
2022-08-19T15:50:49.444Z,7.60
2022-08-19T15:53:17.787Z,8.85
2022-08-19T15:55:48.622Z,8.38
2022-08-19T15:58:34.511Z,6.60
2022-08-19T16:01:23.880Z,7.38
2022-08-19T16:04:14.717Z,11.65
2022-08-19T16:06:46.438Z,9.45
2022-08-19T16:09:15.611Z,8.68
2022-08-19T16:11:46.379Z,9.98
2022-08-19T16:14:15.672Z,13.40
2022-08-19T16:16:47.773Z,11.75
2022-08-19T16:19:18.532Z,7.72
2022-08-19T16:21:49.533Z,11.05
2022-08-19T16:24:20.589Z,10.77
2022-08-19T16:26:49.320Z,12.88
2022-08-19T16:29:27.738Z,10.27
2022-08-19T16:32:06.667Z,9.85
2022-08-19T16:34:35.250Z,8.30
2022-08-19T16:37:03.520Z,11.52
2022-08-19T16:39:32.095Z,5.25
2022-08-19T16:42:01.133Z,8.32
2022-08-19T16:44:30.137Z,8.68
2022-08-19T16:46:59.788Z,9.98
2022-08-19T16:49:52.848Z,14.23
2022-08-19T16:52:21.035Z,3.67
2022-08-19T16:54:49.894Z,5.65
2022-08-19T16:57:19.552Z,9.30
2022-08-19T16:59:49.545Z,12.10
2022-08-19T17:02:19.015Z,7.25
2022-08-19T17:04:58.339Z,9.60
2022-08-19T17:07:28.037Z,13.73
2022-08-19T17:09:57.038Z,9.73
2022-08-19T17:12:31.533Z,6.95
2022-08-19T17:15:01.684Z,7.85
2022-08-19T17:17:30.441Z,15.55
2022-08-19T17:20:00.730Z,10.80
2022-08-19T17:22:29.849Z,10.77
2022-08-19T17:24:58.706Z,8.90
2022-08-19T17:27:31.429Z,8.50
2022-08-19T17:30:02.634Z,17.90
2022-08-19T17:32:33.408Z,15.38
2022-08-19T17:35:04.813Z,15.00
2022-08-19T17:37:35.016Z,14.30
2022-08-19T17:40:04.003Z,18.33
2022-08-19T17:42:32.416Z,12.27
2022-08-19T17:45:00.716Z,14.60
2022-08-19T17:47:31.318Z,15.55
2022-08-19T17:50:00.305Z,5.22
2022-08-19T17:52:30.331Z,9.30
2022-08-19T17:54:58.646Z,15.00
2022-08-19T17:57:26.975Z,10.60
2022-08-19T17:59:55.441Z,8.32
2022-08-19T18:02:25.523Z,13.70
2022-08-19T18:04:54.368Z,9.65
2022-08-19T18:07:22.758Z,8.68
2022-08-19T18:09:54.907Z,10.73
2022-08-19T18:12:26.764Z,8.02
2022-08-19T18:14:56.241Z,8.98
2022-08-19T18:17:26.078Z,11.35
2022-08-19T18:19:54.420Z,9.18
2022-08-19T18:22:26.926Z,8.25
2022-08-19T18:24:57.884Z,13.20
2022-08-19T18:27:27.872Z,10.93
2022-08-19T18:29:59.590Z,14.40
2022-08-19T18:34:57.327Z,11.30
2022-08-19T18:37:27.273Z,14.90
2022-08-19T18:40:14.642Z,10.90
2022-08-19T18:43:02.108Z,10.05
2022-08-19T18:45:47.864Z,11.10
2022-08-19T18:48:33.519Z,12.80
2022-08-19T18:51:03.444Z,10.45
2022-08-19T18:53:35.165Z,11.07
2022-08-19T18:56:05.622Z,10.63
2022-08-19T18:58:35.029Z,10.55
2022-08-19T19:01:11.000Z,14.43
2022-08-19T19:03:42.581Z,16.08
2022-08-19T19:06:11.014Z,9.68
2022-08-19T19:08:41.002Z,8.90
2022-08-19T19:11:11.641Z,10.98
2022-08-19T19:13:41.075Z,11.27
2022-08-19T19:16:11.677Z,12.10
2022-08-19T19:18:40.130Z,8.93
2022-08-19T19:21:09.465Z,11.60
2022-08-19T19:23:40.715Z,8.55
2022-08-19T19:26:10.931Z,12.27
2022-08-19T19:28:43.867Z,15.82
2022-08-19T19:31:14.133Z,11.77
2022-08-19T19:33:43.648Z,14.02
2022-08-19T19:36:14.039Z,15.32
2022-08-19T19:38:48.326Z,10.98
2022-08-19T19:41:19.627Z,10.95
2022-08-19T19:44:04.533Z,15.65
2022-08-19T19:46:38.623Z,11.93
2022-08-19T19:49:08.290Z,16.60
2022-08-19T19:51:38.647Z,10.30
2022-08-19T19:54:07.877Z,10.10
2022-08-19T19:56:36.693Z,8.15
2022-08-19T19:59:06.417Z,9.80
2022-08-19T20:01:35.274Z,14.05
2022-08-19T20:04:04.305Z,7.88
2022-08-19T20:06:34.359Z,8.43
2022-08-19T20:09:11.072Z,13.98
2022-08-19T20:11:44.022Z,6.05
2022-08-19T20:14:17.271Z,7.05
2022-08-19T20:16:47.372Z,12.98
2022-08-19T20:19:18.484Z,11.07
2022-08-19T20:21:51.338Z,4.57
2022-08-19T20:24:24.079Z,11.75
2022-08-19T20:26:53.438Z,9.82
2022-08-19T20:29:39.468Z,8.07
2022-08-19T20:32:11.302Z,11.95
2022-08-19T20:34:41.069Z,9.65
2022-08-19T20:37:10.028Z,11.48
2022-08-19T20:39:38.646Z,11.23
2022-08-19T20:42:07.190Z,6.57
2022-08-19T20:44:37.863Z,9.90
2022-08-19T20:47:06.961Z,10.27
2022-08-19T20:49:35.446Z,12.52
2022-08-19T20:52:05.130Z,13.23
2022-08-19T20:54:34.372Z,10.00
2022-08-19T20:57:03.877Z,10.57
2022-08-19T20:59:32.486Z,9.18
2022-08-19T21:02:02.192Z,11.05
2022-08-19T21:04:30.685Z,10.70
2022-08-19T21:06:58.974Z,8.65
2022-08-19T21:09:28.007Z,8.48
2022-08-19T21:11:57.706Z,8.18
2022-08-19T21:14:26.976Z,10.65
2022-08-19T21:16:55.481Z,7.85
2022-08-19T21:19:25.043Z,12.10
2022-08-19T21:21:54.324Z,8.07
2022-08-19T21:24:26.400Z,13.57
2022-08-19T21:27:00.491Z,19.15
2022-08-19T21:29:28.703Z,9.73
2022-08-19T21:31:56.824Z,8.55
2022-08-19T21:34:26.665Z,14.85
2022-08-19T21:36:54.801Z,7.03
2022-08-19T21:39:23.011Z,7.70
2022-08-19T21:41:51.286Z,10.55
2022-08-19T21:44:19.418Z,9.75
2022-08-19T21:46:50.444Z,8.25
2022-08-19T21:49:19.880Z,13.88
2022-08-19T21:51:49.852Z,8.80
2022-08-19T21:54:18.089Z,10.50
2022-08-19T21:56:47.164Z,18.25
2022-08-19T21:59:17.002Z,12.85
2022-08-19T22:01:50.498Z,6.18
2022-08-19T22:04:22.952Z,8.52
2022-08-19T22:06:55.403Z,6.45
2022-08-19T22:09:23.728Z,5.85
2022-08-19T22:11:52.232Z,13.23
2022-08-19T22:14:20.512Z,6.70
2022-08-19T22:16:48.765Z,11.70
2022-08-19T22:19:17.003Z,9.25
2022-08-19T22:21:45.319Z,6.88
2022-08-19T22:24:15.082Z,11.98
2022-08-19T22:26:43.881Z,7.38
2022-08-19T22:29:13.293Z,8.38
2022-08-19T22:31:45.986Z,12.55
2022-08-19T22:34:23.323Z,12.38
2022-08-19T22:36:51.637Z,8.00
2022-08-19T22:39:21.235Z,8.80
2022-08-19T22:41:49.553Z,11.20
2022-08-19T22:44:17.911Z,10.30
2022-08-19T22:46:46.226Z,10.65
2022-08-19T22:49:14.824Z,9.48
2022-08-19T22:52:00.570Z,5.07
2022-08-19T22:54:30.399Z,10.55
2022-08-19T22:56:58.650Z,11.43
2022-08-19T22:59:27.180Z,9.13
2022-08-19T23:01:55.486Z,12.52
2022-08-19T23:04:24.357Z,12.75
2022-08-19T23:06:52.762Z,11.32
2022-08-19T23:09:23.422Z,6.57
2022-08-19T23:11:53.994Z,7.77
2022-08-19T23:14:22.277Z,12.32
2022-08-19T23:16:51.489Z,7.00
2022-08-19T23:19:22.846Z,7.20
2022-08-19T23:21:52.718Z,14.88
2022-08-19T23:24:21.424Z,11.50
2022-08-19T23:27:07.495Z,8.85
2022-08-19T23:29:54.516Z,10.07
2022-08-19T23:32:25.603Z,9.35
2022-08-19T23:34:56.786Z,10.63
2022-08-19T23:37:25.630Z,6.55
2022-08-19T23:39:53.928Z,6.68
2022-08-19T23:42:22.220Z,10.13
2022-08-19T23:44:52.958Z,9.45
2022-08-19T23:47:22.334Z,10.05
2022-08-19T23:49:50.933Z,6.75
2022-08-19T23:52:19.397Z,9.30
2022-08-19T23:54:47.963Z,8.82
2022-08-19T23:57:16.645Z,11.40
2022-08-19T23:59:45.935Z,8.45
